Time;durP1;ratioP1;P1;durP2;ratioP2;P2;SDS_P1;SDS_P2;PMS_P1;PMS_P2;Temp;Humidity;BMP_temperature;BMP_pressure;BME280_temperature;BME280_humidity;BME280_pressure;Samples;Min_cycle;Max_cycle;Signal;HPM_P1;HPM_P2
2022/03/27 00:01:42;;;;;;;;;;;8.00;99.90;;;;;;4961477;28;19912;-52
2022/03/27 00:04:08;;;;;;;;;;;7.90;99.90;;;;;;4962831;28;19906;-53
2022/03/27 00:06:34;;;;;;;;;;;7.90;99.90;;;;;;4961943;28;19969;-52
2022/03/27 00:09:00;;;;;;;;;;;7.90;99.90;;;;;;4961294;28;20007;-52
2022/03/27 00:11:27;;;;;;;;;;;8.00;99.90;;;;;;4961078;28;19913;-50
2022/03/27 00:13:59;;;;;;;;;;;8.00;99.90;;;;;;4962450;28;19916;-51
2022/03/27 00:16:25;;;;;;;;;;;8.00;99.90;;;;;;4945462;28;20042;-50
2022/03/27 00:18:51;;;;;;;;;;;7.80;99.90;;;;;;4959765;28;19910;-53
2022/03/27 00:21:17;;;;;;;;;;;7.90;99.90;;;;;;4961975;28;19913;-51
2022/03/27 00:23:43;;;;;;;;;;;7.80;99.90;;;;;;4960747;28;20265;-51
2022/03/27 00:26:12;;;;;;;;;;;7.90;99.90;;;;;;4945528;28;19910;-51
2022/03/27 00:28:37;;;;;;;;;;;7.90;99.90;;;;;;4955394;28;19907;-52
2022/03/27 00:31:04;;;;;;;;;;;7.70;99.90;;;;;;4953714;28;19914;-52
2022/03/27 00:33:30;;;;;;;;;;;7.70;99.90;;;;;;4958333;28;19993;-50
2022/03/27 00:35:56;;;;;;;;;;;7.60;99.90;;;;;;4961466;28;20004;-51
2022/03/27 00:38:22;;;;;;;;;;;7.50;99.90;;;;;;4960166;28;20376;-51
2022/03/27 00:40:50;;;;;;;;;;;7.40;99.90;;;;;;4941980;28;19910;-50
2022/03/27 00:43:18;;;;;;;;;;;7.40;99.90;;;;;;4959927;28;19950;-51
2022/03/27 00:45:44;;;;;;;;;;;7.40;99.90;;;;;;4959637;28;19918;-52
2022/03/27 00:48:10;;;;;;;;;;;7.30;99.90;;;;;;4959457;28;19916;-50
2022/03/27 00:50:36;;;;;;;;;;;7.20;99.90;;;;;;4960742;28;19913;-51
2022/03/27 00:53:02;;;;;;;;;;;7.30;99.90;;;;;;4962014;28;19922;-51
2022/03/27 00:55:28;;;;;;;;;;;7.20;99.90;;;;;;4962055;28;20009;-51
2022/03/27 00:57:55;;;;;;;;;;;7.20;99.90;;;;;;4959948;28;20251;-56
2022/03/27 01:00:39;;;;;;;;;;;7.20;99.90;;;;;;4959199;28;20354;-52
2022/03/27 01:03:05;;;;;;;;;;;7.20;99.90;;;;;;4960823;28;20782;-52
2022/03/27 01:05:31;;;;;;;;;;;7.00;99.90;;;;;;4942798;28;19958;-52
2022/03/27 01:07:56;;;;;;;;;;;6.90;99.90;;;;;;4970552;28;19906;-52
2022/03/27 01:10:23;;;;;;;;;;;6.90;99.90;;;;;;4970566;28;19936;-51
2022/03/27 01:12:50;;;;;;;;;;;6.90;99.90;;;;;;4970496;28;19914;-51
2022/03/27 01:15:24;;;;;;;;;;;6.90;99.90;;;;;;4970945;28;19910;-49
2022/03/27 01:17:50;;;;;;;;;;;6.80;99.90;;;;;;4970366;28;19910;-50
2022/03/27 01:20:36;;;;;;;;;;;6.60;99.90;;;;;;4970555;28;19953;-52
2022/03/27 01:23:07;;;;;;;;;;;6.50;99.90;;;;;;4969996;28;19956;-51
2022/03/27 01:25:33;;;;;;;;;;;6.40;99.90;;;;;;4961183;28;19906;-50
2022/03/27 01:27:58;;;;;;;;;;;6.40;99.90;;;;;;4954585;28;19906;-51
2022/03/27 01:30:24;;;;;;;;;;;6.20;99.90;;;;;;4959085;28;19918;-49
2022/03/27 01:32:51;;;;;;;;;;;6.20;99.90;;;;;;4950202;29;19917;-51
2022/03/27 01:35:18;;;;;;;;;;;6.00;99.90;;;;;;4951143;29;19907;-50
2022/03/27 01:37:44;;;;;;;;;;;6.00;99.90;;;;;;4950146;29;19937;-51
2022/03/27 01:40:10;;;;;;;;;;;5.90;99.90;;;;;;4950404;29;20033;-52
2022/03/27 01:42:36;;;;;;;;;;;5.80;99.90;;;;;;4950057;28;20005;-50
2022/03/27 01:45:02;;;;;;;;;;;5.80;99.90;;;;;;4951365;29;19993;-51
2022/03/27 01:47:27;;;;;;;;;;;5.60;99.90;;;;;;4951480;29;19961;-51
2022/03/27 01:49:53;;;;;;;;;;;5.70;99.90;;;;;;4951537;29;19910;-49
2022/03/27 01:52:18;;;;;;;;;;;5.40;99.90;;;;;;4951437;29;19914;-50
2022/03/27 01:54:44;;;;;;;;;;;5.50;99.90;;;;;;4951441;29;19907;-51
2022/03/27 01:57:09;;;;;;;;;;;5.30;99.90;;;;;;4951132;29;19910;-51
2022/03/27 01:59:35;;;;;;;;;;;5.20;99.90;;;;;;4951345;29;19972;-51
2022/03/27 02:02:00;;;;;;;;;;;5.10;99.90;;;;;;4951088;29;19913;-50
2022/03/27 02:04:26;;;;;;;;;;;5.20;99.90;;;;;;4950862;29;19918;-53
2022/03/27 02:06:51;;;;;;;;;;;5.20;99.90;;;;;;4951256;29;20286;-52
2022/03/27 02:09:17;;;;;;;;;;;5.00;99.90;;;;;;4951132;29;20009;-52
2022/03/27 02:11:43;;;;;;;;;;;4.90;99.90;;;;;;4951072;29;19918;-50
2022/03/27 02:14:09;;;;;;;;;;;4.90;99.90;;;;;;4951254;29;19907;-51
2022/03/27 02:16:35;;;;;;;;;;;4.70;99.90;;;;;;4917759;29;19917;-51
2022/03/27 02:19:01;;;;;;;;;;;4.60;99.90;;;;;;4951296;29;20031;-51
2022/03/27 02:21:26;;;;;;;;;;;4.50;99.90;;;;;;4951220;29;20350;-49
2022/03/27 02:23:52;;;;;;;;;;;4.50;99.90;;;;;;4950717;29;19911;-49
2022/03/27 02:26:17;;;;;;;;;;;4.40;99.90;;;;;;4951246;29;19953;-51
2022/03/27 02:28:43;;;;;;;;;;;4.40;99.90;;;;;;4941622;28;19906;-51
2022/03/27 02:31:09;;;;;;;;;;;4.50;99.90;;;;;;4970367;28;19958;-51
2022/03/27 02:33:35;;;;;;;;;;;4.30;99.90;;;;;;4969949;28;19917;-50
2022/03/27 02:36:01;;;;;;;;;;;4.30;99.60;;;;;;4951950;28;19906;-52
2022/03/27 02:38:27;;;;;;;;;;;4.30;99.40;;;;;;4969999;28;19906;-50
2022/03/27 02:40:53;;;;;;;;;;;4.40;99.00;;;;;;4970640;28;19906;-52
2022/03/27 02:43:18;;;;;;;;;;;4.20;97.60;;;;;;4970292;28;20270;-51
2022/03/27 02:45:44;;;;;;;;;;;4.20;98.10;;;;;;4970331;28;19906;-52
2022/03/27 02:48:09;;;;;;;;;;;4.10;97.60;;;;;;4970323;28;20371;-52
2022/03/27 02:50:38;;;;;;;;;;;4.10;98.10;;;;;;4970584;28;19925;-52
2022/03/27 02:53:04;;;;;;;;;;;4.00;97.90;;;;;;4972189;28;20038;-51
2022/03/27 02:55:30;;;;;;;;;;;4.00;97.80;;;;;;4956511;28;20020;-51
2022/03/27 02:57:56;;;;;;;;;;;3.90;98.40;;;;;;4955623;28;19906;-51
2022/03/27 03:00:22;;;;;;;;;;;3.90;99.90;;;;;;4937583;29;19910;-51
2022/03/27 03:02:47;;;;;;;;;;;3.90;99.10;;;;;;4954636;29;19965;-50
2022/03/27 03:05:13;;;;;;;;;;;3.90;99.30;;;;;;4954794;29;20422;-51
2022/03/27 03:07:41;;;;;;;;;;;3.90;99.90;;;;;;4954200;29;19921;-53
2022/03/27 03:10:06;;;;;;;;;;;3.80;99.00;;;;;;4954943;29;19922;-51
2022/03/27 03:12:32;;;;;;;;;;;3.70;99.90;;;;;;4954378;29;19906;-51
2022/03/27 03:14:58;;;;;;;;;;;3.70;99.90;;;;;;4954385;29;19914;-51
2022/03/27 03:17:23;;;;;;;;;;;3.70;99.90;;;;;;4954180;29;19915;-51
2022/03/27 03:19:49;;;;;;;;;;;3.50;99.90;;;;;;4954628;29;20301;-52
2022/03/27 03:22:15;;;;;;;;;;;3.30;99.90;;;;;;4954335;29;20341;-52
2022/03/27 03:24:40;;;;;;;;;;;3.30;99.90;;;;;;4954409;29;19919;-50
2022/03/27 03:27:06;;;;;;;;;;;3.20;99.90;;;;;;4936639;29;19913;-53
2022/03/27 03:29:31;;;;;;;;;;;3.10;99.90;;;;;;4969150;28;19964;-52
2022/03/27 03:31:57;;;;;;;;;;;3.20;99.90;;;;;;4973508;28;19910;-52
2022/03/27 03:34:23;;;;;;;;;;;3.10;99.90;;;;;;4973456;28;19997;-51
2022/03/27 03:36:48;;;;;;;;;;;3.00;99.90;;;;;;4973258;28;19941;-52
2022/03/27 03:39:14;;;;;;;;;;;3.10;99.90;;;;;;4973685;28;19906;-52
2022/03/27 03:41:39;;;;;;;;;;;3.10;99.90;;;;;;4973614;28;19914;-51
2022/03/27 03:44:05;;;;;;;;;;;3.10;99.90;;;;;;4973346;28;20396;-52
2022/03/27 03:46:31;;;;;;;;;;;3.10;99.90;;;;;;4973693;28;20001;-52
2022/03/27 03:48:56;;;;;;;;;;;3.10;99.90;;;;;;4973503;28;19912;-50
2022/03/27 03:51:22;;;;;;;;;;;3.10;99.90;;;;;;4973309;28;19925;-52
2022/03/27 03:53:47;;;;;;;;;;;3.00;99.90;;;;;;4973235;28;19910;-52
2022/03/27 03:56:13;;;;;;;;;;;2.80;99.90;;;;;;4951021;29;19953;-51
2022/03/27 03:58:38;;;;;;;;;;;2.90;99.90;;;;;;4953621;29;19910;-52
2022/03/27 04:01:04;;;;;;;;;;;2.80;99.90;;;;;;4953758;29;19910;-51
2022/03/27 04:03:30;;;;;;;;;;;2.70;99.90;;;;;;4953613;28;20041;-51
2022/03/27 04:05:55;;;;;;;;;;;2.80;99.90;;;;;;4952963;29;19921;-51
2022/03/27 04:08:21;;;;;;;;;;;2.80;99.90;;;;;;4953234;29;19907;-52
2022/03/27 04:10:47;;;;;;;;;;;2.80;99.90;;;;;;4953717;29;19915;-51
2022/03/27 04:13:13;;;;;;;;;;;2.80;99.90;;;;;;4953605;29;19922;-52
2022/03/27 04:15:39;;;;;;;;;;;2.70;99.90;;;;;;4953522;29;20302;-50
2022/03/27 04:18:05;;;;;;;;;;;2.60;99.90;;;;;;4953237;29;19981;-50
2022/03/27 04:20:31;;;;;;;;;;;2.70;99.90;;;;;;4953638;29;19911;-51
2022/03/27 04:22:56;;;;;;;;;;;2.50;99.90;;;;;;4953198;29;19907;-51
2022/03/27 04:25:22;;;;;;;;;;;2.50;99.90;;;;;;4953185;29;19910;-52
2022/03/27 04:27:47;;;;;;;;;;;2.40;99.90;;;;;;4953969;28;19913;-52
2022/03/27 04:30:13;;;;;;;;;;;2.50;99.90;;;;;;4972376;28;19917;-50
2022/03/27 04:32:39;;;;;;;;;;;2.40;99.90;;;;;;4972267;28;19910;-52
2022/03/27 04:35:05;;;;;;;;;;;2.40;99.90;;;;;;4955041;28;19913;-51
2022/03/27 04:37:31;;;;;;;;;;;2.30;99.90;;;;;;4971913;28;19914;-52
2022/03/27 04:40:03;;;;;;;;;;;2.20;99.90;;;;;;4972428;28;19916;-53
2022/03/27 04:42:29;;;;;;;;;;;2.20;99.90;;;;;;4972011;28;19916;-52
2022/03/27 04:44:55;;;;;;;;;;;2.30;99.90;;;;;;4955004;28;19917;-52
2022/03/27 04:47:21;;;;;;;;;;;2.20;99.90;;;;;;4972041;28;19914;-52
2022/03/27 04:49:46;;;;;;;;;;;2.10;99.90;;;;;;4972107;28;20017;-51
2022/03/27 04:52:12;;;;;;;;;;;2.10;99.90;;;;;;4972103;28;19910;-50
2022/03/27 04:54:38;;;;;;;;;;;2.00;99.90;;;;;;4971843;28;20262;-51
2022/03/27 04:57:04;;;;;;;;;;;1.90;99.90;;;;;;4960436;28;19957;-50
2022/03/27 04:59:30;;;;;;;;;;;1.80;99.90;;;;;;4952640;29;19997;-52
2022/03/27 05:01:56;;;;;;;;;;;1.70;99.90;;;;;;4952472;29;19910;-52
2022/03/27 05:04:22;;;;;;;;;;;1.60;99.90;;;;;;4952588;29;20009;-51
2022/03/27 05:06:47;;;;;;;;;;;1.60;99.90;;;;;;4952332;29;19997;-51
2022/03/27 05:09:13;;;;;;;;;;;1.60;99.90;;;;;;4952439;29;19914;-51
2022/03/27 05:11:38;;;;;;;;;;;1.60;99.90;;;;;;4952181;29;19962;-51
2022/03/27 05:14:04;;;;;;;;;;;1.70;99.90;;;;;;4952426;29;19965;-52
2022/03/27 05:16:29;;;;;;;;;;;1.70;99.90;;;;;;4951268;28;20456;-52
2022/03/27 05:18:55;;;;;;;;;;;1.40;99.90;;;;;;4952469;29;20373;-52
2022/03/27 05:21:21;;;;;;;;;;;1.10;99.90;;;;;;4952416;29;20376;-51
2022/03/27 05:23:47;;;;;;;;;;;1.10;99.90;;;;;;4952016;29;19912;-52
2022/03/27 05:26:12;;;;;;;;;;;1.00;99.90;;;;;;4952226;29;19914;-53
2022/03/27 05:28:38;;;;;;;;;;;1.00;99.90;;;;;;4959593;28;19906;-51
2022/03/27 05:31:08;;;;;;;;;;;1.10;99.90;;;;;;4971650;28;19918;-52
2022/03/27 05:33:38;;;;;;;;;;;1.30;99.90;;;;;;4971164;28;19914;-51
2022/03/27 05:36:04;;;;;;;;;;;1.40;99.90;;;;;;4971240;28;20464;-51
2022/03/27 05:38:29;;;;;;;;;;;1.50;99.90;;;;;;4970984;28;19960;-52
2022/03/27 05:40:55;;;;;;;;;;;1.50;99.90;;;;;;4971218;28;19910;-51
2022/03/27 05:43:20;;;;;;;;;;;1.70;99.90;;;;;;4971163;28;20301;-51
2022/03/27 05:45:46;;;;;;;;;;;1.80;99.90;;;;;;4970976;28;20322;-52
2022/03/27 05:48:13;;;;;;;;;;;1.90;99.90;;;;;;4971092;28;20377;-51
2022/03/27 05:50:39;;;;;;;;;;;2.00;99.90;;;;;;4970796;28;19967;-50
2022/03/27 05:53:05;;;;;;;;;;;2.00;99.90;;;;;;4970579;28;19910;-51
2022/03/27 05:55:30;;;;;;;;;;;2.10;99.90;;;;;;4970915;28;19921;-49
2022/03/27 05:57:56;;;;;;;;;;;2.20;99.90;;;;;;4952560;28;19918;-50
2022/03/27 06:00:21;;;;;;;;;;;2.30;99.90;;;;;;4951688;29;19910;-52
2022/03/27 06:02:48;;;;;;;;;;;2.30;99.90;;;;;;4951574;29;19910;-50
2022/03/27 06:05:14;;;;;;;;;;;2.50;99.90;;;;;;4951314;29;19919;-49
2022/03/27 06:07:42;;;;;;;;;;;2.50;99.90;;;;;;4951400;29;20369;-52
2022/03/27 06:10:08;;;;;;;;;;;2.60;99.90;;;;;;4951117;29;20255;-50
2022/03/27 06:12:34;;;;;;;;;;;2.80;99.90;;;;;;4951531;29;19933;-49
2022/03/27 06:14:59;;;;;;;;;;;2.80;99.90;;;;;;4951237;29;20065;-51
2022/03/27 06:17:25;;;;;;;;;;;2.90;99.90;;;;;;4951462;29;20023;-51
2022/03/27 06:19:50;;;;;;;;;;;3.10;99.90;;;;;;4951520;29;20425;-50
2022/03/27 06:22:16;;;;;;;;;;;3.20;99.90;;;;;;4951019;29;20505;-49
2022/03/27 06:24:41;;;;;;;;;;;3.30;99.90;;;;;;4951064;29;19965;-51
2022/03/27 06:27:07;;;;;;;;;;;3.40;99.90;;;;;;4951094;28;20065;-50
2022/03/27 06:29:33;;;;;;;;;;;3.50;99.90;;;;;;4966137;28;19910;-50
2022/03/27 06:31:58;;;;;;;;;;;3.60;99.90;;;;;;4937070;28;19910;-51
2022/03/27 06:34:26;;;;;;;;;;;3.70;99.90;;;;;;4970322;28;19913;-51
2022/03/27 06:36:51;;;;;;;;;;;3.80;99.90;;;;;;4970305;28;20377;-53
2022/03/27 06:39:17;;;;;;;;;;;4.00;99.90;;;;;;4969902;28;19962;-51
2022/03/27 06:41:43;;;;;;;;;;;4.00;99.90;;;;;;4970052;28;19956;-50
2022/03/27 06:44:09;;;;;;;;;;;4.20;99.90;;;;;;4970118;28;19988;-51
2022/03/27 06:46:34;;;;;;;;;;;4.20;99.90;;;;;;4970225;28;19906;-52
2022/03/27 06:49:00;;;;;;;;;;;4.30;99.90;;;;;;4970131;28;20373;-52
2022/03/27 06:51:25;;;;;;;;;;;4.40;99.90;;;;;;4970002;28;19914;-53
2022/03/27 06:53:51;;;;;;;;;;;4.50;99.90;;;;;;4969925;28;19917;-51
2022/03/27 06:56:17;;;;;;;;;;;4.70;99.90;;;;;;4965041;28;20251;-51
2022/03/27 06:58:42;;;;;;;;;;;4.80;99.90;;;;;;4950958;29;19910;-52
2022/03/27 07:03:53;;;;;;;;;;;4.90;99.90;;;;;;4950902;29;19965;-53
2022/03/27 07:06:19;;;;;;;;;;;5.00;99.90;;;;;;4950478;29;19929;-52
2022/03/27 07:08:45;;;;;;;;;;;5.20;99.90;;;;;;4950872;29;19907;-52
2022/03/27 07:11:10;;;;;;;;;;;5.30;99.90;;;;;;4950674;29;20382;-54
2022/03/27 07:13:36;;;;;;;;;;;5.40;99.90;;;;;;4950581;29;19921;-52
2022/03/27 07:16:02;;;;;;;;;;;5.50;99.90;;;;;;4950950;29;19910;-51
2022/03/27 07:18:28;;;;;;;;;;;5.60;99.90;;;;;;4933428;29;20215;-51
2022/03/27 07:20:54;;;;;;;;;;;5.70;99.90;;;;;;4950691;29;19906;-53
2022/03/27 07:23:20;;;;;;;;;;;5.80;99.30;;;;;;4950559;29;19921;-52
2022/03/27 07:25:47;;;;;;;;;;;5.80;99.60;;;;;;4950571;29;20561;-52
2022/03/27 07:28:13;;;;;;;;;;;6.00;98.90;;;;;;4954619;28;19916;-50
2022/03/27 07:30:40;;;;;;;;;;;6.10;95.70;;;;;;4969583;28;20022;-53
2022/03/27 07:33:06;;;;;;;;;;;6.20;94.80;;;;;;4969888;28;19945;-50
2022/03/27 07:35:32;;;;;;;;;;;6.30;91.50;;;;;;4969691;28;20356;-52
2022/03/27 07:37:57;;;;;;;;;;;6.50;91.80;;;;;;4969627;28;19910;-52
2022/03/27 07:40:23;;;;;;;;;;;6.70;90.50;;;;;;4971703;28;19945;-51
2022/03/27 07:42:50;;;;;;;;;;;6.80;85.70;;;;;;4973188;28;19910;-52
2022/03/27 07:45:18;;;;;;;;;;;7.00;80.80;;;;;;4973248;28;19910;-52
2022/03/27 07:47:44;;;;;;;;;;;7.00;78.10;;;;;;4973477;28;19906;-51
2022/03/27 07:50:10;;;;;;;;;;;7.10;75.80;;;;;;4972918;28;20365;-51
2022/03/27 07:52:35;;;;;;;;;;;7.20;72.00;;;;;;4972860;28;19936;-52
2022/03/27 07:55:01;;;;;;;;;;;7.30;73.20;;;;;;4973224;28;20008;-50
2022/03/27 07:57:28;;;;;;;;;;;7.30;65.30;;;;;;4958364;28;20380;-51
2022/03/27 07:59:54;;;;;;;;;;;7.40;65.70;;;;;;4953705;29;20013;-52
2022/03/27 08:02:21;;;;;;;;;;;7.50;70.00;;;;;;4953802;29;19910;-51
2022/03/27 08:04:47;;;;;;;;;;;7.70;69.20;;;;;;4936129;29;19962;-52
2022/03/27 08:07:13;;;;;;;;;;;7.80;65.50;;;;;;4953703;29;19953;-52
2022/03/27 08:09:39;;;;;;;;;;;7.90;63.80;;;;;;4953212;29;19906;-52
2022/03/27 08:12:07;;;;;;;;;;;8.00;59.40;;;;;;4953600;29;19923;-52
2022/03/27 08:14:33;;;;;;;;;;;8.20;63.70;;;;;;4953041;29;19975;-52
2022/03/27 08:16:59;;;;;;;;;;;8.30;63.80;;;;;;4953467;29;20001;-53
2022/03/27 08:19:24;;;;;;;;;;;8.30;62.60;;;;;;4953622;29;20418;-53
2022/03/27 08:21:50;;;;;;;;;;;8.40;57.50;;;;;;4952886;29;19915;-52
2022/03/27 08:24:15;;;;;;;;;;;8.70;58.30;;;;;;4953238;29;20005;-53
2022/03/27 08:26:56;;;;;;;;;;;8.80;56.80;;;;;;4935947;29;20000;-52
2022/03/27 08:29:24;;;;;;;;;;;9.00;57.10;;;;;;4967155;28;19932;-52
2022/03/27 08:31:50;;;;;;;;;;;9.20;56.10;;;;;;4972014;28;19945;-52
2022/03/27 08:34:17;;;;;;;;;;;9.30;53.40;;;;;;4972618;28;19917;-52
2022/03/27 08:36:43;;;;;;;;;;;9.50;55.10;;;;;;4972531;28;19973;-52
2022/03/27 08:39:09;;;;;;;;;;;9.60;55.10;;;;;;4972091;28;20234;-52
2022/03/27 08:41:34;;;;;;;;;;;10.40;53.80;;;;;;4972167;28;19910;-52
2022/03/27 08:44:01;;;;;;;;;;;10.40;52.80;;;;;;4972257;28;20720;-52
2022/03/27 08:46:28;;;;;;;;;;;10.60;49.70;;;;;;4972233;28;19965;-52
2022/03/27 08:48:54;;;;;;;;;;;10.80;50.30;;;;;;4971888;28;19945;-53
2022/03/27 08:51:38;;;;;;;;;;;10.70;45.70;;;;;;4971592;28;19964;-53
2022/03/27 08:54:05;;;;;;;;;;;11.00;46.20;;;;;;4972074;28;19906;-53
2022/03/27 08:56:31;;;;;;;;;;;11.40;45.40;;;;;;4964767;28;20638;-52
2022/03/27 08:58:58;;;;;;;;;;;11.00;45.60;;;;;;4935090;29;20417;-49
2022/03/27 09:01:24;;;;;;;;;;;12.60;45.20;;;;;;4952375;29;19914;-49
2022/03/27 09:03:50;;;;;;;;;;;13.00;45.00;;;;;;4952543;29;19910;-51
2022/03/27 09:06:15;;;;;;;;;;;11.20;45.90;;;;;;4952350;29;20017;-50
2022/03/27 09:08:41;;;;;;;;;;;12.40;48.60;;;;;;4952526;29;19991;-51
2022/03/27 09:11:11;;;;;;;;;;;12.00;45.50;;;;;;4952462;29;20010;-48
2022/03/27 09:13:37;;;;;;;;;;;12.20;45.80;;;;;;4952102;29;19917;-53
2022/03/27 09:16:04;;;;;;;;;;;13.70;47.30;;;;;;4952356;29;20388;-50
2022/03/27 09:18:43;;;;;;;;;;;14.20;44.50;;;;;;4952375;29;19907;-52
2022/03/27 09:21:09;;;;;;;;;;;14.80;39.40;;;;;;4934625;29;19914;-52
2022/03/27 09:23:38;;;;;;;;;;;14.00;39.00;;;;;;4951763;29;19910;-51
2022/03/27 09:26:05;;;;;;;;;;;14.30;39.90;;;;;;4934518;29;20262;-51
2022/03/27 09:28:38;;;;;;;;;;;13.60;38.40;;;;;;4958513;28;20381;-54
2022/03/27 09:31:04;;;;;;;;;;;13.90;42.50;;;;;;4971153;28;20373;-52
2022/03/27 09:33:32;;;;;;;;;;;13.90;39.30;;;;;;4970849;28;19906;-52
2022/03/27 09:36:11;;;;;;;;;;;13.80;39.80;;;;;;4971232;28;20005;-52
2022/03/27 09:38:37;;;;;;;;;;;13.70;39.10;;;;;;4963126;28;19910;-53
2022/03/27 09:41:02;;;;;;;;;;;14.10;40.10;;;;;;4953601;28;19954;-51
2022/03/27 09:43:28;;;;;;;;;;;13.70;40.90;;;;;;4951048;29;19950;-54
2022/03/27 09:45:55;;;;;;;;;;;15.20;36.10;;;;;;4951267;29;20005;-52
2022/03/27 09:48:21;;;;;;;;;;;15.20;35.90;;;;;;4951160;28;19915;-52
2022/03/27 09:50:46;;;;;;;;;;;15.00;40.00;;;;;;4965473;28;19949;-51
2022/03/27 09:53:19;;;;;;;;;;;15.80;36.70;;;;;;4951571;29;19910;-52
2022/03/27 09:55:46;;;;;;;;;;;15.20;35.30;;;;;;4965696;28;20501;-52
2022/03/27 09:58:12;;;;;;;;;;;15.00;35.50;;;;;;4935648;29;20376;-49
2022/03/27 10:00:38;;;;;;;;;;;14.40;38.40;;;;;;4931508;29;19997;-49
2022/03/27 10:03:10;;;;;;;;;;;14.30;38.50;;;;;;4931114;29;20014;-52
2022/03/27 10:05:36;;;;;;;;;;;14.80;37.80;;;;;;4931509;29;19923;-51
2022/03/27 10:08:03;;;;;;;;;;;14.10;38.20;;;;;;4932135;29;19917;-51
2022/03/27 10:10:28;;;;;;;;;;;14.20;39.30;;;;;;4952891;28;20293;-53
2022/03/27 10:12:55;;;;;;;;;;;14.40;39.00;;;;;;4951313;28;20427;-53
2022/03/27 10:15:22;;;;;;;;;;;14.60;37.70;;;;;;4950489;29;20005;-52
2022/03/27 10:18:01;;;;;;;;;;;14.90;37.80;;;;;;4950305;29;19906;-53
2022/03/27 10:20:28;;;;;;;;;;;14.90;37.20;;;;;;4949377;29;19917;-52
2022/03/27 10:23:18;;;;;;;;;;;14.20;35.80;;;;;;4931865;29;19921;-52
2022/03/27 10:25:48;;;;;;;;;;;14.60;37.70;;;;;;4943123;29;19911;-52
2022/03/27 10:28:16;;;;;;;;;;;15.50;35.90;;;;;;4953492;28;19910;-52
2022/03/27 10:30:42;;;;;;;;;;;15.40;35.40;;;;;;4970453;28;19925;-51
2022/03/27 10:33:09;;;;;;;;;;;16.10;36.50;;;;;;4970336;28;19906;-51
2022/03/27 10:35:53;;;;;;;;;;;15.60;36.30;;;;;;4952619;28;20333;-53
2022/03/27 10:38:22;;;;;;;;;;;15.60;36.90;;;;;;4970348;28;19910;-53
2022/03/27 10:40:48;;;;;;;;;;;15.80;38.30;;;;;;4969985;28;20330;-53
2022/03/27 10:43:22;;;;;;;;;;;15.90;35.40;;;;;;4970351;28;19910;-53
2022/03/27 10:46:08;;;;;;;;;;;16.10;35.10;;;;;;4970474;28;19984;-51
2022/03/27 10:48:42;;;;;;;;;;;15.50;33.90;;;;;;4970142;28;19914;-53
2022/03/27 10:51:08;;;;;;;;;;;15.70;34.60;;;;;;4970315;28;19961;-52
2022/03/27 10:53:33;;;;;;;;;;;15.80;36.10;;;;;;4970007;28;19917;-52
2022/03/27 10:55:59;;;;;;;;;;;16.10;36.20;;;;;;4967177;28;19906;-52
2022/03/27 10:58:32;;;;;;;;;;;16.20;33.30;;;;;;4933458;29;19910;-52
2022/03/27 11:00:59;;;;;;;;;;;16.20;34.60;;;;;;4951065;29;19915;-51
2022/03/27 11:03:44;;;;;;;;;;;17.30;32.40;;;;;;5077688;23;19922;-52
2022/03/27 11:06:19;;;;;;;;;;;16.00;30.20;;;;;;4969934;28;20357;-52
2022/03/27 11:08:45;;;;;;;;;;;16.20;32.90;;;;;;4969882;28;19910;-52
2022/03/27 11:11:11;;;;;;;;;;;16.40;32.20;;;;;;4968451;28;19918;-54
2022/03/27 11:13:39;;;;;;;;;;;16.40;32.30;;;;;;4969702;28;20372;-52
2022/03/27 11:16:05;;;;;;;;;;;16.50;34.80;;;;;;4955801;28;19977;-53
2022/03/27 11:18:35;;;;;;;;;;;16.80;34.70;;;;;;4973355;28;19906;-52
2022/03/27 11:21:00;;;;;;;;;;;17.00;33.40;;;;;;4973506;28;20377;-53
2022/03/27 11:23:27;;;;;;;;;;;16.80;32.70;;;;;;4973144;28;19920;-53
2022/03/27 11:25:53;;;;;;;;;;;17.50;35.10;;;;;;4973429;28;19906;-53
2022/03/27 11:28:20;;;;;;;;;;;17.10;34.00;;;;;;4974056;28;19910;-52
2022/03/27 11:30:55;;;;;;;;;;;17.60;34.70;;;;;;4992761;28;20281;-50
2022/03/27 11:33:24;;;;;;;;;;;17.80;32.90;;;;;;4992602;28;20038;-52
2022/03/27 11:36:07;;;;;;;;;;;17.80;33.00;;;;;;4975196;28;20048;-53
2022/03/27 11:38:52;;;;;;;;;;;18.10;32.10;;;;;;4992403;28;20368;-51
2022/03/27 11:41:22;;;;;;;;;;;18.10;33.40;;;;;;4992711;28;20456;-51
2022/03/27 11:43:50;;;;;;;;;;;17.80;33.40;;;;;;4992364;28;19914;-53
2022/03/27 11:46:24;;;;;;;;;;;17.50;34.00;;;;;;4975351;28;19909;-53
2022/03/27 11:48:57;;;;;;;;;;;17.30;33.00;;;;;;4974735;28;19912;-52
2022/03/27 11:51:25;;;;;;;;;;;17.30;34.20;;;;;;4992243;28;19953;-51
2022/03/27 11:53:52;;;;;;;;;;;17.30;31.40;;;;;;4992005;28;19909;-51
2022/03/27 11:56:18;;;;;;;;;;;17.30;33.50;;;;;;4986914;28;20217;-51
2022/03/27 11:58:43;;;;;;;;;;;16.60;32.80;;;;;;4972645;28;19992;-53
2022/03/27 12:01:09;;;;;;;;;;;17.00;35.00;;;;;;4972996;28;20289;-52
2022/03/27 12:03:36;;;;;;;;;;;17.10;35.10;;;;;;4972226;28;20362;-51
2022/03/27 12:06:09;;;;;;;;;;;17.40;35.10;;;;;;4972779;28;19934;-50
2022/03/27 12:08:39;;;;;;;;;;;17.10;33.40;;;;;;4972845;28;19906;-51
2022/03/27 12:11:06;;;;;;;;;;;17.10;35.00;;;;;;4972813;28;19914;-52
2022/03/27 12:13:36;;;;;;;;;;;17.30;36.00;;;;;;4972244;28;19909;-51
2022/03/27 12:16:02;;;;;;;;;;;17.20;35.50;;;;;;4972576;28;20411;-51
2022/03/27 12:18:33;;;;;;;;;;;17.30;35.60;;;;;;4972284;28;19952;-51
2022/03/27 12:21:01;;;;;;;;;;;17.30;35.20;;;;;;4972644;28;20361;-52
2022/03/27 12:23:28;;;;;;;;;;;17.10;35.40;;;;;;4972275;28;20042;-51
2022/03/27 12:25:57;;;;;;;;;;;17.40;36.40;;;;;;4971556;28;19906;-52
2022/03/27 12:31:17;;;;;;;;;;;17.20;32.80;;;;;;4953141;29;19924;-52
2022/03/27 12:33:43;;;;;;;;;;;16.90;34.10;;;;;;4952810;29;19929;-50
2022/03/27 12:36:10;;;;;;;;;;;17.20;36.60;;;;;;4953212;29;20358;-52
2022/03/27 12:38:36;;;;;;;;;;;17.20;34.20;;;;;;4952587;29;20495;-51
2022/03/27 12:41:02;;;;;;;;;;;17.00;33.90;;;;;;4952742;29;19910;-50
2022/03/27 12:43:28;;;;;;;;;;;16.90;35.00;;;;;;4952353;29;19906;-51
2022/03/27 12:45:55;;;;;;;;;;;16.90;35.10;;;;;;4952741;29;19910;-50
2022/03/27 12:48:20;;;;;;;;;;;16.80;34.40;;;;;;4952812;29;19907;-52
2022/03/27 12:50:47;;;;;;;;;;;16.40;33.40;;;;;;4952619;29;20419;-52
2022/03/27 12:53:13;;;;;;;;;;;16.30;33.60;;;;;;4952342;29;19910;-52
2022/03/27 12:55:46;;;;;;;;;;;16.20;33.50;;;;;;4952640;28;19912;-53
2022/03/27 12:58:13;;;;;;;;;;;16.10;32.80;;;;;;4971667;28;19914;-51
2022/03/27 13:00:40;;;;;;;;;;;15.80;33.00;;;;;;4954622;28;19925;-51
2022/03/27 13:03:24;;;;;;;;;;;16.20;34.30;;;;;;4971273;28;19922;-51
2022/03/27 13:05:53;;;;;;;;;;;16.70;36.90;;;;;;4971724;28;20338;-51
2022/03/27 13:08:32;;;;;;;;;;;16.70;35.60;;;;;;4971671;28;19909;-51
2022/03/27 13:10:58;;;;;;;;;;;17.10;36.60;;;;;;4971689;28;20387;-52
2022/03/27 13:13:33;;;;;;;;;;;17.50;36.40;;;;;;4971144;28;20368;-51
2022/03/27 13:15:58;;;;;;;;;;;17.70;36.30;;;;;;4971635;28;19945;-52
2022/03/27 13:18:31;;;;;;;;;;;17.50;33.30;;;;;;4971555;28;19957;-51
2022/03/27 13:20:57;;;;;;;;;;;17.00;32.20;;;;;;4971258;28;19910;-50
2022/03/27 13:23:22;;;;;;;;;;;16.70;33.90;;;;;;4953663;28;19964;-51
2022/03/27 13:25:48;;;;;;;;;;;16.80;34.30;;;;;;4971415;28;20269;-52
2022/03/27 13:28:13;;;;;;;;;;;16.90;33.10;;;;;;4970882;28;19909;-51
2022/03/27 13:30:39;;;;;;;;;;;16.50;33.40;;;;;;4986971;28;19979;-50
2022/03/27 13:33:06;;;;;;;;;;;16.90;36.30;;;;;;4990570;28;20356;-51
2022/03/27 13:35:33;;;;;;;;;;;16.50;33.40;;;;;;4990453;28;19922;-50
2022/03/27 13:37:59;;;;;;;;;;;16.40;34.10;;;;;;4989382;28;19912;-51
2022/03/27 13:43:12;;;;;;;;;;;16.50;34.50;;;;;;4975492;28;19921;-50
2022/03/27 13:45:41;;;;;;;;;;;16.90;35.50;;;;;;4990587;28;20060;-53
2022/03/27 13:48:07;;;;;;;;;;;16.80;33.50;;;;;;4989955;28;20004;-53
2022/03/27 13:50:33;;;;;;;;;;;17.00;33.90;;;;;;4989716;28;19914;-53
2022/03/27 13:52:58;;;;;;;;;;;16.90;33.10;;;;;;4989786;28;19916;-51
2022/03/27 13:55:25;;;;;;;;;;;17.00;35.70;;;;;;4974302;28;19914;-53
2022/03/27 13:57:50;;;;;;;;;;;16.90;33.90;;;;;;4969442;28;19985;-51
2022/03/27 14:00:16;;;;;;;;;;;16.80;33.40;;;;;;4969900;28;19958;-51
2022/03/27 14:02:42;;;;;;;;;;;17.20;34.90;;;;;;4979338;28;20004;-50
2022/03/27 14:05:08;;;;;;;;;;;17.10;33.70;;;;;;4988993;28;19910;-50
2022/03/27 14:07:33;;;;;;;;;;;17.20;33.10;;;;;;4973088;28;19921;-52
2022/03/27 14:09:59;;;;;;;;;;;17.10;34.80;;;;;;4972219;28;19916;-50
2022/03/27 14:12:24;;;;;;;;;;;16.80;33.00;;;;;;4977518;28;19914;-49
2022/03/27 14:14:50;;;;;;;;;;;16.50;33.10;;;;;;4978237;28;19906;-50
2022/03/27 14:17:15;;;;;;;;;;;16.90;35.00;;;;;;4974725;28;19914;-51
2022/03/27 14:19:41;;;;;;;;;;;16.80;33.60;;;;;;4968602;28;19972;-50
2022/03/27 14:22:07;;;;;;;;;;;16.60;33.00;;;;;;4973245;28;19906;-50
2022/03/27 14:24:32;;;;;;;;;;;16.30;32.20;;;;;;4972051;28;19913;-52
2022/03/27 14:26:58;;;;;;;;;;;16.50;34.20;;;;;;4970076;28;19918;-50
2022/03/27 14:29:23;;;;;;;;;;;16.50;32.70;;;;;;4974399;28;20320;-50
2022/03/27 14:31:52;;;;;;;;;;;16.20;33.20;;;;;;4989532;28;19949;-51